sensor_id;sensor_type;location;lat;lon;timestamp;P1;durP1;ratioP1;P2;durP2;ratioP2
77248;SDS011;66280;45.124;20.718;2023-06-10T00:43:19;4.72;;;3.67;;
77248;SDS011;66280;45.124;20.718;2023-06-10T00:53:21;5.63;;;4.30;;
77248;SDS011;66280;45.124;20.718;2023-06-10T03:03:39;10.20;;;5.45;;
77248;SDS011;66280;45.124;20.718;2023-06-10T03:13:43;5.30;;;4.70;;
77248;SDS011;66280;45.124;20.718;2023-06-10T03:23:49;6.20;;;5.60;;
77248;SDS011;66280;45.124;20.718;2023-06-10T03:33:50;8.73;;;5.13;;
77248;SDS011;66280;45.124;20.718;2023-06-10T03:43:51;6.97;;;5.53;;
77248;SDS011;66280;45.124;20.718;2023-06-10T03:53:52;8.03;;;5.27;;
77248;SDS011;66280;45.124;20.718;2023-06-10T04:03:53;7.60;;;5.87;;
77248;SDS011;66280;45.124;20.718;2023-06-10T04:13:53;9.73;;;6.77;;
77248;SDS011;66280;45.124;20.718;2023-06-10T04:23:55;9.37;;;7.30;;
77248;SDS011;66280;45.124;20.718;2023-06-10T04:33:56;12.60;;;8.90;;
77248;SDS011;66280;45.124;20.718;2023-06-10T04:43:57;11.47;;;9.07;;
77248;SDS011;66280;45.124;20.718;2023-06-10T04:53:59;13.23;;;9.15;;
77248;SDS011;66280;45.124;20.718;2023-06-10T05:04:00;11.83;;;7.60;;
77248;SDS011;66280;45.124;20.718;2023-06-10T05:14:00;8.20;;;7.40;;
77248;SDS011;66280;45.124;20.718;2023-06-10T05:24:01;10.93;;;6.50;;
77248;SDS011;66280;45.124;20.718;2023-06-10T05:34:02;9.80;;;7.00;;
77248;SDS011;66280;45.124;20.718;2023-06-10T05:44:02;10.33;;;7.17;;
77248;SDS011;66280;45.124;20.718;2023-06-10T05:54:03;10.75;;;5.30;;
77248;SDS011;66280;45.124;20.718;2023-06-10T06:04:04;10.93;;;5.07;;
77248;SDS011;66280;45.124;20.718;2023-06-10T06:14:05;6.97;;;5.73;;
77248;SDS011;66280;45.124;20.718;2023-06-10T06:24:05;7.70;;;5.53;;
77248;SDS011;66280;45.124;20.718;2023-06-10T06:34:07;10.90;;;6.57;;
77248;SDS011;66280;45.124;20.718;2023-06-10T06:44:07;10.03;;;6.10;;
77248;SDS011;66280;45.124;20.718;2023-06-10T06:54:12;11.10;;;7.63;;
77248;SDS011;66280;45.124;20.718;2023-06-10T07:04:14;4.93;;;4.30;;
77248;SDS011;66280;45.124;20.718;2023-06-10T07:14:15;5.70;;;2.93;;
77248;SDS011;66280;45.124;20.718;2023-06-10T07:24:16;4.10;;;3.70;;
77248;SDS011;66280;45.124;20.718;2023-06-10T10:04:35;5.90;;;5.40;;
77248;SDS011;66280;45.124;20.718;2023-06-10T10:14:36;6.47;;;5.88;;
77248;SDS011;66280;45.124;20.718;2023-06-10T10:24:39;5.93;;;5.37;;
77248;SDS011;66280;45.124;20.718;2023-06-10T10:34:53;5.17;;;4.77;;
77248;SDS011;66280;45.124;20.718;2023-06-10T10:45:04;6.78;;;6.05;;
77248;SDS011;66280;45.124;20.718;2023-06-10T10:55:12;6.77;;;6.17;;
77248;SDS011;66280;45.124;20.718;2023-06-10T11:05:14;7.27;;;6.57;;
77248;SDS011;66280;45.124;20.718;2023-06-10T11:15:19;5.20;;;4.80;;
77248;SDS011;66280;45.124;20.718;2023-06-10T11:25:37;6.67;;;6.13;;
77248;SDS011;66280;45.124;20.718;2023-06-10T11:35:39;6.43;;;5.88;;
77248;SDS011;66280;45.124;20.718;2023-06-10T11:45:41;6.70;;;6.13;;
77248;SDS011;66280;45.124;20.718;2023-06-10T11:55:48;6.20;;;5.60;;
77248;SDS011;66280;45.124;20.718;2023-06-10T12:06:03;6.10;;;5.70;;
77248;SDS011;66280;45.124;20.718;2023-06-10T12:16:11;4.27;;;3.97;;
77248;SDS011;66280;45.124;20.718;2023-06-10T12:26:11;4.20;;;4.00;;
77248;SDS011;66280;45.124;20.718;2023-06-10T12:36:17;7.07;;;5.10;;
77248;SDS011;66280;45.124;20.718;2023-06-10T12:46:18;8.77;;;4.60;;
77248;SDS011;66280;45.124;20.718;2023-06-10T12:56:18;4.87;;;4.03;;
77248;SDS011;66280;45.124;20.718;2023-06-10T13:06:19;3.90;;;3.60;;
77248;SDS011;66280;45.124;20.718;2023-06-10T13:16:20;7.53;;;4.40;;
77248;SDS011;66280;45.124;20.718;2023-06-10T13:26:20;4.70;;;4.40;;
77248;SDS011;66280;45.124;20.718;2023-06-10T13:36:21;5.28;;;4.88;;
77248;SDS011;66280;45.124;20.718;2023-06-10T13:46:22;5.40;;;5.00;;
77248;SDS011;66280;45.124;20.718;2023-06-10T13:56:22;4.47;;;4.18;;
77248;SDS011;66280;45.124;20.718;2023-06-10T14:06:23;4.13;;;3.83;;
77248;SDS011;66280;45.124;20.718;2023-06-10T14:16:24;4.77;;;4.47;;
77248;SDS011;66280;45.124;20.718;2023-06-10T14:26:24;4.23;;;3.93;;
77248;SDS011;66280;45.124;20.718;2023-06-10T14:36:25;4.40;;;4.10;;
77248;SDS011;66280;45.124;20.718;2023-06-10T14:46:26;5.80;;;5.30;;
77248;SDS011;66280;45.124;20.718;2023-06-10T14:56:26;5.43;;;5.03;;
77248;SDS011;66280;45.124;20.718;2023-06-10T15:06:27;10.07;;;5.17;;
77248;SDS011;66280;45.124;20.718;2023-06-10T15:16:28;5.23;;;4.90;;
77248;SDS011;66280;45.124;20.718;2023-06-10T15:26:28;5.47;;;5.00;;
77248;SDS011;66280;45.124;20.718;2023-06-10T15:36:29;6.78;;;4.38;;
77248;SDS011;66280;45.124;20.718;2023-06-10T15:46:30;7.50;;;5.53;;
77248;SDS011;66280;45.124;20.718;2023-06-10T15:56:30;5.37;;;4.50;;
77248;SDS011;66280;45.124;20.718;2023-06-10T16:06:31;4.50;;;4.10;;
77248;SDS011;66280;45.124;20.718;2023-06-10T16:16:32;4.33;;;4.03;;
77248;SDS011;66280;45.124;20.718;2023-06-10T16:26:32;5.40;;;5.00;;
77248;SDS011;66280;45.124;20.718;2023-06-10T16:36:33;4.00;;;3.57;;
77248;SDS011;66280;45.124;20.718;2023-06-10T16:46:34;4.27;;;3.97;;
77248;SDS011;66280;45.124;20.718;2023-06-10T16:56:34;4.50;;;4.10;;
77248;SDS011;66280;45.124;20.718;2023-06-10T17:06:35;6.37;;;4.47;;
77248;SDS011;66280;45.124;20.718;2023-06-10T17:16:36;6.30;;;4.37;;
77248;SDS011;66280;45.124;20.718;2023-06-10T17:26:36;4.50;;;4.10;;
77248;SDS011;66280;45.124;20.718;2023-06-10T17:36:37;4.60;;;4.20;;
77248;SDS011;66280;45.124;20.718;2023-06-10T17:46:38;4.80;;;4.40;;
77248;SDS011;66280;45.124;20.718;2023-06-10T17:56:38;7.03;;;5.77;;
77248;SDS011;66280;45.124;20.718;2023-06-10T18:06:39;15.90;;;4.90;;
77248;SDS011;66280;45.124;20.718;2023-06-10T18:16:39;9.60;;;5.10;;
77248;SDS011;66280;45.124;20.718;2023-06-10T18:26:40;9.30;;;5.63;;
77248;SDS011;66280;45.124;20.718;2023-06-10T18:36:41;8.70;;;6.07;;
77248;SDS011;66280;45.124;20.718;2023-06-10T18:46:42;7.35;;;5.18;;
77248;SDS011;66280;45.124;20.718;2023-06-10T18:56:42;9.17;;;5.63;;
77248;SDS011;66280;45.124;20.718;2023-06-10T19:06:43;14.53;;;8.87;;
77248;SDS011;66280;45.124;20.718;2023-06-10T19:16:44;15.93;;;8.00;;
77248;SDS011;66280;45.124;20.718;2023-06-10T19:26:44;34.73;;;10.43;;
77248;SDS011;66280;45.124;20.718;2023-06-10T19:36:45;11.77;;;8.73;;
77248;SDS011;66280;45.124;20.718;2023-06-10T19:46:46;14.13;;;8.67;;
77248;SDS011;66280;45.124;20.718;2023-06-10T19:56:46;11.47;;;9.03;;
77248;SDS011;66280;45.124;20.718;2023-06-10T20:06:47;16.87;;;9.90;;
77248;SDS011;66280;45.124;20.718;2023-06-10T20:16:47;15.95;;;8.77;;
77248;SDS011;66280;45.124;20.718;2023-06-10T20:26:48;13.33;;;8.77;;
77248;SDS011;66280;45.124;20.718;2023-06-10T20:36:49;16.47;;;9.63;;
77248;SDS011;66280;45.124;20.718;2023-06-10T20:46:49;9.73;;;7.90;;
77248;SDS011;66280;45.124;20.718;2023-06-10T20:56:50;10.05;;;8.20;;
77248;SDS011;66280;45.124;20.718;2023-06-10T21:06:51;17.13;;;8.47;;
77248;SDS011;66280;45.124;20.718;2023-06-10T21:16:51;22.40;;;15.20;;
77248;SDS011;66280;45.124;20.718;2023-06-10T21:26:52;21.90;;;12.53;;
77248;SDS011;66280;45.124;20.718;2023-06-10T21:36:53;13.77;;;10.57;;
77248;SDS011;66280;45.124;20.718;2023-06-10T21:46:53;13.97;;;10.37;;
77248;SDS011;66280;45.124;20.718;2023-06-10T21:56:54;18.43;;;9.00;;
77248;SDS011;66280;45.124;20.718;2023-06-10T22:06:54;10.57;;;7.00;;
77248;SDS011;66280;45.124;20.718;2023-06-10T22:16:55;8.50;;;6.93;;
77248;SDS011;66280;45.124;20.718;2023-06-10T22:26:56;7.17;;;5.87;;
77248;SDS011;66280;45.124;20.718;2023-06-10T22:36:57;10.47;;;6.40;;
77248;SDS011;66280;45.124;20.718;2023-06-10T22:46:57;7.37;;;5.63;;
77248;SDS011;66280;45.124;20.718;2023-06-10T22:56:58;8.82;;;6.72;;
77248;SDS011;66280;45.124;20.718;2023-06-10T23:06:59;7.63;;;5.67;;
77248;SDS011;66280;45.124;20.718;2023-06-10T23:17:00;8.82;;;5.60;;
77248;SDS011;66280;45.124;20.718;2023-06-10T23:27:00;7.63;;;6.27;;
77248;SDS011;66280;45.124;20.718;2023-06-10T23:37:01;7.53;;;6.28;;
77248;SDS011;66280;45.124;20.718;2023-06-10T23:47:02;7.37;;;5.53;;
77248;SDS011;66280;45.124;20.718;2023-06-10T23:57:04;9.73;;;6.10;;
